sensor_id;sensor_type;location;lat;lon;timestamp;temperature;humidity
21712;DHT22;11017;53.552;9.910;2023-06-14T00:01:02;17.30;99.90
21712;DHT22;11017;53.552;9.910;2023-06-14T00:03:31;17.10;99.90
21712;DHT22;11017;53.552;9.910;2023-06-14T00:05:58;17.20;99.90
21712;DHT22;11017;53.552;9.910;2023-06-14T00:08:25;17.20;99.90
21712;DHT22;11017;53.552;9.910;2023-06-14T00:10:52;17.30;99.90
21712;DHT22;11017;53.552;9.910;2023-06-14T00:13:20;17.40;99.90
21712;DHT22;11017;53.552;9.910;2023-06-14T00:15:47;17.40;99.90
21712;DHT22;11017;53.552;9.910;2023-06-14T00:18:14;17.50;99.90
21712;DHT22;11017;53.552;9.910;2023-06-14T00:20:42;17.50;99.90
21712;DHT22;11017;53.552;9.910;2023-06-14T00:23:09;17.30;99.90
21712;DHT22;11017;53.552;9.910;2023-06-14T00:25:36;17.40;99.90
21712;DHT22;11017;53.552;9.910;2023-06-14T00:28:03;17.30;99.90
21712;DHT22;11017;53.552;9.910;2023-06-14T00:30:31;17.30;99.90
21712;DHT22;11017;53.552;9.910;2023-06-14T00:32:58;17.20;99.90
21712;DHT22;11017;53.552;9.910;2023-06-14T00:35:25;16.90;99.90
21712;DHT22;11017;53.552;9.910;2023-06-14T00:37:52;16.90;99.90
21712;DHT22;11017;53.552;9.910;2023-06-14T00:40:20;17.20;99.90
21712;DHT22;11017;53.552;9.910;2023-06-14T00:42:47;17.20;99.90
21712;DHT22;11017;53.552;9.910;2023-06-14T00:45:14;17.20;99.90
21712;DHT22;11017;53.552;9.910;2023-06-14T00:47:43;17.00;99.90
21712;DHT22;11017;53.552;9.910;2023-06-14T00:50:12;17.10;99.90
21712;DHT22;11017;53.552;9.910;2023-06-14T00:52:40;17.30;99.90
21712;DHT22;11017;53.552;9.910;2023-06-14T00:55:07;17.00;99.90
21712;DHT22;11017;53.552;9.910;2023-06-14T00:57:34;17.20;99.90
21712;DHT22;11017;53.552;9.910;2023-06-14T01:00:04;17.00;99.90
21712;DHT22;11017;53.552;9.910;2023-06-14T01:02:34;17.10;99.90
21712;DHT22;11017;53.552;9.910;2023-06-14T01:05:03;17.10;99.90
21712;DHT22;11017;53.552;9.910;2023-06-14T01:07:41;17.20;99.90
21712;DHT22;11017;53.552;9.910;2023-06-14T01:10:19;17.10;99.90
21712;DHT22;11017;53.552;9.910;2023-06-14T01:12:52;17.10;99.90
21712;DHT22;11017;53.552;9.910;2023-06-14T01:15:23;17.00;99.90
21712;DHT22;11017;53.552;9.910;2023-06-14T01:17:50;17.00;99.90
21712;DHT22;11017;53.552;9.910;2023-06-14T01:20:22;16.90;99.90
21712;DHT22;11017;53.552;9.910;2023-06-14T01:22:56;16.90;99.90
21712;DHT22;11017;53.552;9.910;2023-06-14T01:25:23;16.80;99.90
21712;DHT22;11017;53.552;9.910;2023-06-14T01:27:52;16.80;99.90
21712;DHT22;11017;53.552;9.910;2023-06-14T01:30:21;16.80;99.90
21712;DHT22;11017;53.552;9.910;2023-06-14T01:32:49;16.80;99.90
21712;DHT22;11017;53.552;9.910;2023-06-14T01:35:17;16.60;99.90
21712;DHT22;11017;53.552;9.910;2023-06-14T01:37:44;16.60;99.90
21712;DHT22;11017;53.552;9.910;2023-06-14T01:40:15;16.50;99.90
21712;DHT22;11017;53.552;9.910;2023-06-14T01:42:42;16.50;99.90
21712;DHT22;11017;53.552;9.910;2023-06-14T01:45:10;16.70;99.90
21712;DHT22;11017;53.552;9.910;2023-06-14T01:47:38;16.70;99.90
21712;DHT22;11017;53.552;9.910;2023-06-14T01:50:06;16.70;99.90
21712;DHT22;11017;53.552;9.910;2023-06-14T01:52:33;16.80;99.90
21712;DHT22;11017;53.552;9.910;2023-06-14T01:55:00;17.00;99.90
21712;DHT22;11017;53.552;9.910;2023-06-14T01:57:29;16.90;99.90
21712;DHT22;11017;53.552;9.910;2023-06-14T01:59:56;17.00;99.90
21712;DHT22;11017;53.552;9.910;2023-06-14T02:02:23;17.10;99.90
21712;DHT22;11017;53.552;9.910;2023-06-14T02:04:50;16.90;99.90
21712;DHT22;11017;53.552;9.910;2023-06-14T02:07:17;16.70;99.90
21712;DHT22;11017;53.552;9.910;2023-06-14T02:09:44;16.80;99.90
21712;DHT22;11017;53.552;9.910;2023-06-14T02:12:11;16.60;99.90
21712;DHT22;11017;53.552;9.910;2023-06-14T02:14:39;16.60;99.90
21712;DHT22;11017;53.552;9.910;2023-06-14T02:17:06;16.70;99.90
21712;DHT22;11017;53.552;9.910;2023-06-14T02:19:33;16.60;99.90
21712;DHT22;11017;53.552;9.910;2023-06-14T02:22:00;16.80;99.90
21712;DHT22;11017;53.552;9.910;2023-06-14T02:24:27;16.80;99.90
21712;DHT22;11017;53.552;9.910;2023-06-14T02:26:54;16.70;99.90
21712;DHT22;11017;53.552;9.910;2023-06-14T02:29:21;16.60;99.90
21712;DHT22;11017;53.552;9.910;2023-06-14T02:31:49;16.60;99.90
21712;DHT22;11017;53.552;9.910;2023-06-14T02:34:16;16.40;99.90
21712;DHT22;11017;53.552;9.910;2023-06-14T02:36:43;16.40;99.90
21712;DHT22;11017;53.552;9.910;2023-06-14T02:39:10;16.60;99.90
21712;DHT22;11017;53.552;9.910;2023-06-14T02:41:38;16.50;99.90
21712;DHT22;11017;53.552;9.910;2023-06-14T02:44:05;16.50;99.90
21712;DHT22;11017;53.552;9.910;2023-06-14T02:46:32;16.50;99.90
21712;DHT22;11017;53.552;9.910;2023-06-14T02:49:00;16.60;99.90
21712;DHT22;11017;53.552;9.910;2023-06-14T02:51:27;16.40;99.90
21712;DHT22;11017;53.552;9.910;2023-06-14T02:53:54;16.40;99.90
21712;DHT22;11017;53.552;9.910;2023-06-14T02:56:21;16.30;99.90
21712;DHT22;11017;53.552;9.910;2023-06-14T02:58:48;16.20;99.90
21712;DHT22;11017;53.552;9.910;2023-06-14T03:01:16;16.30;99.90
21712;DHT22;11017;53.552;9.910;2023-06-14T03:03:43;16.40;99.90
21712;DHT22;11017;53.552;9.910;2023-06-14T03:06:12;16.30;99.90
21712;DHT22;11017;53.552;9.910;2023-06-14T03:08:39;16.50;99.90
21712;DHT22;11017;53.552;9.910;2023-06-14T03:11:07;16.30;99.90
21712;DHT22;11017;53.552;9.910;2023-06-14T03:13:34;16.10;99.90
21712;DHT22;11017;53.552;9.910;2023-06-14T03:16:01;16.10;99.90
21712;DHT22;11017;53.552;9.910;2023-06-14T03:18:29;16.00;99.90
21712;DHT22;11017;53.552;9.910;2023-06-14T03:21:03;15.90;99.90
21712;DHT22;11017;53.552;9.910;2023-06-14T03:23:31;16.00;99.90
21712;DHT22;11017;53.552;9.910;2023-06-14T03:25:59;16.30;99.90
21712;DHT22;11017;53.552;9.910;2023-06-14T03:28:26;16.40;99.90
21712;DHT22;11017;53.552;9.910;2023-06-14T03:30:52;16.40;99.90
21712;DHT22;11017;53.552;9.910;2023-06-14T03:33:19;16.20;99.90
21712;DHT22;11017;53.552;9.910;2023-06-14T03:35:46;16.40;99.90
21712;DHT22;11017;53.552;9.910;2023-06-14T03:38:13;16.50;99.90
21712;DHT22;11017;53.552;9.910;2023-06-14T03:40:41;16.50;99.90
21712;DHT22;11017;53.552;9.910;2023-06-14T03:43:10;16.50;99.90
21712;DHT22;11017;53.552;9.910;2023-06-14T03:45:36;16.60;99.90
21712;DHT22;11017;53.552;9.910;2023-06-14T03:48:04;16.40;99.90
21712;DHT22;11017;53.552;9.910;2023-06-14T03:50:33;16.20;99.90
21712;DHT22;11017;53.552;9.910;2023-06-14T03:53:03;16.40;99.90
21712;DHT22;11017;53.552;9.910;2023-06-14T03:55:30;16.40;99.90
21712;DHT22;11017;53.552;9.910;2023-06-14T03:58:00;16.50;99.90
21712;DHT22;11017;53.552;9.910;2023-06-14T04:00:27;16.50;99.90
21712;DHT22;11017;53.552;9.910;2023-06-14T04:02:54;16.40;99.90
21712;DHT22;11017;53.552;9.910;2023-06-14T04:05:21;16.50;99.90
21712;DHT22;11017;53.552;9.910;2023-06-14T04:07:52;16.60;99.90
21712;DHT22;11017;53.552;9.910;2023-06-14T04:10:23;16.60;99.90
21712;DHT22;11017;53.552;9.910;2023-06-14T04:12:50;16.60;99.90
21712;DHT22;11017;53.552;9.910;2023-06-14T04:15:19;16.50;99.90
21712;DHT22;11017;53.552;9.910;2023-06-14T04:17:46;16.20;99.90
21712;DHT22;11017;53.552;9.910;2023-06-14T04:20:13;16.30;99.90
21712;DHT22;11017;53.552;9.910;2023-06-14T04:22:40;16.50;99.90
21712;DHT22;11017;53.552;9.910;2023-06-14T04:25:08;16.50;99.90
21712;DHT22;11017;53.552;9.910;2023-06-14T04:27:35;16.60;99.90
21712;DHT22;11017;53.552;9.910;2023-06-14T04:30:03;16.70;99.90
21712;DHT22;11017;53.552;9.910;2023-06-14T04:32:31;16.70;99.90
21712;DHT22;11017;53.552;9.910;2023-06-14T04:34:59;16.60;99.90
21712;DHT22;11017;53.552;9.910;2023-06-14T04:37:27;16.70;99.90
21712;DHT22;11017;53.552;9.910;2023-06-14T04:39:54;16.90;99.90
21712;DHT22;11017;53.552;9.910;2023-06-14T04:42:24;17.10;99.90
21712;DHT22;11017;53.552;9.910;2023-06-14T04:44:57;17.20;99.90
21712;DHT22;11017;53.552;9.910;2023-06-14T04:47:24;17.20;99.90
21712;DHT22;11017;53.552;9.910;2023-06-14T04:49:57;17.30;99.90
21712;DHT22;11017;53.552;9.910;2023-06-14T04:52:26;17.30;99.90
21712;DHT22;11017;53.552;9.910;2023-06-14T04:54:55;17.10;99.90
21712;DHT22;11017;53.552;9.910;2023-06-14T04:57:22;17.10;99.90
21712;DHT22;11017;53.552;9.910;2023-06-14T04:59:51;17.20;99.90
21712;DHT22;11017;53.552;9.910;2023-06-14T05:02:21;17.10;99.90
21712;DHT22;11017;53.552;9.910;2023-06-14T05:04:49;17.10;99.90
21712;DHT22;11017;53.552;9.910;2023-06-14T05:07:21;17.20;99.90
21712;DHT22;11017;53.552;9.910;2023-06-14T05:09:49;17.40;99.90
21712;DHT22;11017;53.552;9.910;2023-06-14T05:12:16;17.30;99.90
21712;DHT22;11017;53.552;9.910;2023-06-14T05:14:44;17.40;99.90
21712;DHT22;11017;53.552;9.910;2023-06-14T05:17:11;17.40;99.90
21712;DHT22;11017;53.552;9.910;2023-06-14T05:19:38;17.60;99.90
21712;DHT22;11017;53.552;9.910;2023-06-14T05:22:05;17.70;99.90
21712;DHT22;11017;53.552;9.910;2023-06-14T05:24:34;17.70;99.90
21712;DHT22;11017;53.552;9.910;2023-06-14T05:27:01;17.70;99.90
21712;DHT22;11017;53.552;9.910;2023-06-14T05:29:28;17.70;99.90
21712;DHT22;11017;53.552;9.910;2023-06-14T05:31:54;17.90;99.90
21712;DHT22;11017;53.552;9.910;2023-06-14T05:34:22;18.00;99.90
21712;DHT22;11017;53.552;9.910;2023-06-14T05:36:48;17.80;99.90
21712;DHT22;11017;53.552;9.910;2023-06-14T05:39:15;17.90;99.90
21712;DHT22;11017;53.552;9.910;2023-06-14T05:41:44;18.00;99.90
21712;DHT22;11017;53.552;9.910;2023-06-14T05:44:10;18.20;99.90
21712;DHT22;11017;53.552;9.910;2023-06-14T05:46:37;18.20;99.90
21712;DHT22;11017;53.552;9.910;2023-06-14T05:49:05;18.30;99.90
21712;DHT22;11017;53.552;9.910;2023-06-14T05:51:32;18.30;99.90
21712;DHT22;11017;53.552;9.910;2023-06-14T05:53:59;18.50;99.90
21712;DHT22;11017;53.552;9.910;2023-06-14T05:56:26;18.70;99.90
21712;DHT22;11017;53.552;9.910;2023-06-14T05:58:54;18.60;99.90
21712;DHT22;11017;53.552;9.910;2023-06-14T06:01:21;18.70;99.90
21712;DHT22;11017;53.552;9.910;2023-06-14T06:03:48;18.70;99.90
21712;DHT22;11017;53.552;9.910;2023-06-14T06:06:15;18.80;99.90
21712;DHT22;11017;53.552;9.910;2023-06-14T06:08:43;18.90;99.90
21712;DHT22;11017;53.552;9.910;2023-06-14T06:11:10;18.90;99.90
21712;DHT22;11017;53.552;9.910;2023-06-14T06:13:37;18.80;99.90
21712;DHT22;11017;53.552;9.910;2023-06-14T06:16:06;19.00;99.90
21712;DHT22;11017;53.552;9.910;2023-06-14T06:18:33;19.10;99.90
21712;DHT22;11017;53.552;9.910;2023-06-14T06:21:00;19.10;99.90
21712;DHT22;11017;53.552;9.910;2023-06-14T06:23:28;19.00;99.90
21712;DHT22;11017;53.552;9.910;2023-06-14T06:25:56;19.10;99.90
21712;DHT22;11017;53.552;9.910;2023-06-14T06:28:23;18.90;99.90
21712;DHT22;11017;53.552;9.910;2023-06-14T06:30:50;18.80;99.90
21712;DHT22;11017;53.552;9.910;2023-06-14T06:33:18;19.00;99.90
21712;DHT22;11017;53.552;9.910;2023-06-14T06:35:45;18.90;99.90
21712;DHT22;11017;53.552;9.910;2023-06-14T06:38:12;18.90;99.90
21712;DHT22;11017;53.552;9.910;2023-06-14T06:40:39;18.90;99.90
21712;DHT22;11017;53.552;9.910;2023-06-14T06:43:06;19.10;99.90
21712;DHT22;11017;53.552;9.910;2023-06-14T06:45:32;19.30;99.90
21712;DHT22;11017;53.552;9.910;2023-06-14T06:47:59;19.20;99.90
21712;DHT22;11017;53.552;9.910;2023-06-14T06:50:27;19.40;99.90
21712;DHT22;11017;53.552;9.910;2023-06-14T06:52:54;19.30;99.90
21712;DHT22;11017;53.552;9.910;2023-06-14T06:55:21;19.60;99.90
21712;DHT22;11017;53.552;9.910;2023-06-14T06:57:48;19.70;99.90
21712;DHT22;11017;53.552;9.910;2023-06-14T07:00:18;19.50;99.90
21712;DHT22;11017;53.552;9.910;2023-06-14T07:02:45;19.40;99.90
21712;DHT22;11017;53.552;9.910;2023-06-14T07:05:12;19.50;99.90
21712;DHT22;11017;53.552;9.910;2023-06-14T07:07:40;19.80;99.90
21712;DHT22;11017;53.552;9.910;2023-06-14T07:10:08;19.90;99.90
21712;DHT22;11017;53.552;9.910;2023-06-14T07:12:34;20.00;99.90
21712;DHT22;11017;53.552;9.910;2023-06-14T07:15:05;20.20;99.90
21712;DHT22;11017;53.552;9.910;2023-06-14T07:17:33;20.20;99.90
21712;DHT22;11017;53.552;9.910;2023-06-14T07:20:02;20.30;99.90
21712;DHT22;11017;53.552;9.910;2023-06-14T07:22:38;20.40;99.90
21712;DHT22;11017;53.552;9.910;2023-06-14T07:25:08;20.50;99.90
21712;DHT22;11017;53.552;9.910;2023-06-14T07:27:37;20.70;99.90
21712;DHT22;11017;53.552;9.910;2023-06-14T07:30:06;20.70;99.90
21712;DHT22;11017;53.552;9.910;2023-06-14T07:32:33;20.80;99.90
21712;DHT22;11017;53.552;9.910;2023-06-14T07:35:00;20.90;99.90
21712;DHT22;11017;53.552;9.910;2023-06-14T07:37:28;21.10;99.90
21712;DHT22;11017;53.552;9.910;2023-06-14T07:39:56;21.30;99.90
21712;DHT22;11017;53.552;9.910;2023-06-14T07:42:24;21.00;99.90
21712;DHT22;11017;53.552;9.910;2023-06-14T07:44:51;21.40;99.90
21712;DHT22;11017;53.552;9.910;2023-06-14T07:47:19;21.80;99.90
21712;DHT22;11017;53.552;9.910;2023-06-14T07:49:46;21.80;99.90
21712;DHT22;11017;53.552;9.910;2023-06-14T07:52:13;21.80;99.90
21712;DHT22;11017;53.552;9.910;2023-06-14T07:54:40;21.90;99.90
21712;DHT22;11017;53.552;9.910;2023-06-14T07:57:06;21.70;99.90
21712;DHT22;11017;53.552;9.910;2023-06-14T07:59:35;21.50;99.90
21712;DHT22;11017;53.552;9.910;2023-06-14T08:02:03;21.70;99.90
21712;DHT22;11017;53.552;9.910;2023-06-14T08:04:30;21.90;99.90
21712;DHT22;11017;53.552;9.910;2023-06-14T08:06:57;22.10;99.90
21712;DHT22;11017;53.552;9.910;2023-06-14T08:09:24;22.20;99.90
21712;DHT22;11017;53.552;9.910;2023-06-14T08:11:53;22.30;99.90
21712;DHT22;11017;53.552;9.910;2023-06-14T08:14:19;22.20;99.90
21712;DHT22;11017;53.552;9.910;2023-06-14T08:16:48;22.20;99.90
21712;DHT22;11017;53.552;9.910;2023-06-14T08:19:14;22.40;99.90
21712;DHT22;11017;53.552;9.910;2023-06-14T08:21:42;22.50;99.90
21712;DHT22;11017;53.552;9.910;2023-06-14T08:24:11;22.70;99.90
21712;DHT22;11017;53.552;9.910;2023-06-14T08:26:38;22.60;99.90
21712;DHT22;11017;53.552;9.910;2023-06-14T08:29:06;22.90;99.90
21712;DHT22;11017;53.552;9.910;2023-06-14T08:31:34;23.20;99.90
21712;DHT22;11017;53.552;9.910;2023-06-14T08:34:03;23.30;99.90
21712;DHT22;11017;53.552;9.910;2023-06-14T08:36:30;23.30;99.90
21712;DHT22;11017;53.552;9.910;2023-06-14T08:38:57;23.00;99.90
21712;DHT22;11017;53.552;9.910;2023-06-14T08:41:24;23.30;99.90
21712;DHT22;11017;53.552;9.910;2023-06-14T08:43:51;23.50;99.90
21712;DHT22;11017;53.552;9.910;2023-06-14T08:46:18;23.80;99.90
21712;DHT22;11017;53.552;9.910;2023-06-14T08:48:49;23.90;99.90
21712;DHT22;11017;53.552;9.910;2023-06-14T08:51:19;23.80;99.90
21712;DHT22;11017;53.552;9.910;2023-06-14T08:53:52;23.70;99.90
21712;DHT22;11017;53.552;9.910;2023-06-14T08:56:20;24.00;99.90
21712;DHT22;11017;53.552;9.910;2023-06-14T08:58:48;24.40;99.90
21712;DHT22;11017;53.552;9.910;2023-06-14T09:01:15;24.80;99.30
21712;DHT22;11017;53.552;9.910;2023-06-14T09:03:43;25.60;99.10
21712;DHT22;11017;53.552;9.910;2023-06-14T09:06:10;25.90;98.30
21712;DHT22;11017;53.552;9.910;2023-06-14T09:08:42;25.40;98.10
21712;DHT22;11017;53.552;9.910;2023-06-14T09:11:11;25.90;97.70
21712;DHT22;11017;53.552;9.910;2023-06-14T09:13:38;26.80;96.30
21712;DHT22;11017;53.552;9.910;2023-06-14T09:16:06;26.20;96.10
21712;DHT22;11017;53.552;9.910;2023-06-14T09:18:37;25.90;95.80
21712;DHT22;11017;53.552;9.910;2023-06-14T09:21:05;26.20;95.70
21712;DHT22;11017;53.552;9.910;2023-06-14T09:23:35;26.00;96.20
21712;DHT22;11017;53.552;9.910;2023-06-14T09:26:08;26.60;95.00
21712;DHT22;11017;53.552;9.910;2023-06-14T09:28:35;27.10;94.30
21712;DHT22;11017;53.552;9.910;2023-06-14T09:31:02;27.10;94.10
21712;DHT22;11017;53.552;9.910;2023-06-14T09:33:31;27.50;92.90
21712;DHT22;11017;53.552;9.910;2023-06-14T09:35:58;27.80;93.10
21712;DHT22;11017;53.552;9.910;2023-06-14T09:38:25;28.20;93.10
21712;DHT22;11017;53.552;9.910;2023-06-14T09:40:54;28.30;92.70
21712;DHT22;11017;53.552;9.910;2023-06-14T09:43:23;28.70;92.00
21712;DHT22;11017;53.552;9.910;2023-06-14T09:45:51;28.60;92.10
21712;DHT22;11017;53.552;9.910;2023-06-14T09:48:18;29.30;91.90
21712;DHT22;11017;53.552;9.910;2023-06-14T09:50:46;28.90;91.30
21712;DHT22;11017;53.552;9.910;2023-06-14T09:53:14;29.10;90.90
21712;DHT22;11017;53.552;9.910;2023-06-14T09:55:43;29.30;91.00
21712;DHT22;11017;53.552;9.910;2023-06-14T09:58:10;29.90;90.30
21712;DHT22;11017;53.552;9.910;2023-06-14T10:00:40;29.10;89.80
21712;DHT22;11017;53.552;9.910;2023-06-14T10:03:12;28.20;90.20
21712;DHT22;11017;53.552;9.910;2023-06-14T10:05:43;28.80;90.40
21712;DHT22;11017;53.552;9.910;2023-06-14T10:08:13;28.90;89.00
21712;DHT22;11017;53.552;9.910;2023-06-14T10:10:42;27.80;90.00
21712;DHT22;11017;53.552;9.910;2023-06-14T10:13:10;27.10;90.50
21712;DHT22;11017;53.552;9.910;2023-06-14T10:15:46;26.40;90.50
21712;DHT22;11017;53.552;9.910;2023-06-14T10:18:19;27.20;90.60
21712;DHT22;11017;53.552;9.910;2023-06-14T10:20:53;27.10;90.60
21712;DHT22;11017;53.552;9.910;2023-06-14T10:23:23;28.10;91.20
21712;DHT22;11017;53.552;9.910;2023-06-14T10:25:54;28.60;89.40
21712;DHT22;11017;53.552;9.910;2023-06-14T10:28:22;28.00;89.30
21712;DHT22;11017;53.552;9.910;2023-06-14T10:31:05;26.80;90.30
21712;DHT22;11017;53.552;9.910;2023-06-14T10:33:33;26.20;90.40
21712;DHT22;11017;53.552;9.910;2023-06-14T10:36:10;25.60;90.50
21712;DHT22;11017;53.552;9.910;2023-06-14T10:38:58;26.70;90.60
21712;DHT22;11017;53.552;9.910;2023-06-14T10:41:26;27.00;90.30
21712;DHT22;11017;53.552;9.910;2023-06-14T10:46:58;27.80;89.70
21712;DHT22;11017;53.552;9.910;2023-06-14T10:49:40;29.00;89.00
21712;DHT22;11017;53.552;9.910;2023-06-14T10:52:12;29.70;87.50
21712;DHT22;11017;53.552;9.910;2023-06-14T10:54:59;29.10;86.40
21712;DHT22;11017;53.552;9.910;2023-06-14T10:57:26;27.90;86.60
21712;DHT22;11017;53.552;9.910;2023-06-14T10:59:53;27.20;87.70
21712;DHT22;11017;53.552;9.910;2023-06-14T11:02:46;26.70;88.00
21712;DHT22;11017;53.552;9.910;2023-06-14T11:05:23;27.10;87.60
21712;DHT22;11017;53.552;9.910;2023-06-14T11:10:41;27.60;86.80
21712;DHT22;11017;53.552;9.910;2023-06-14T11:13:11;27.20;87.10
21712;DHT22;11017;53.552;9.910;2023-06-14T11:15:39;26.90;87.90
21712;DHT22;11017;53.552;9.910;2023-06-14T11:18:13;28.20;86.90
21712;DHT22;11017;53.552;9.910;2023-06-14T11:20:40;29.70;85.00
21712;DHT22;11017;53.552;9.910;2023-06-14T11:23:07;29.90;83.60
21712;DHT22;11017;53.552;9.910;2023-06-14T11:25:34;29.90;83.50
21712;DHT22;11017;53.552;9.910;2023-06-14T11:28:03;29.50;84.00
21712;DHT22;11017;53.552;9.910;2023-06-14T11:30:30;28.60;84.80
21712;DHT22;11017;53.552;9.910;2023-06-14T11:32:57;28.10;84.80
21712;DHT22;11017;53.552;9.910;2023-06-14T11:35:26;28.50;85.10
21712;DHT22;11017;53.552;9.910;2023-06-14T11:37:53;29.30;85.50
21712;DHT22;11017;53.552;9.910;2023-06-14T11:40:23;28.70;82.80
21712;DHT22;11017;53.552;9.910;2023-06-14T11:42:58;27.80;85.00
21712;DHT22;11017;53.552;9.910;2023-06-14T11:45:26;28.20;84.50
21712;DHT22;11017;53.552;9.910;2023-06-14T11:47:54;29.20;83.20
21712;DHT22;11017;53.552;9.910;2023-06-14T11:50:22;29.30;84.00
21712;DHT22;11017;53.552;9.910;2023-06-14T11:52:53;30.00;85.60
21712;DHT22;11017;53.552;9.910;2023-06-14T11:55:21;29.30;82.50
21712;DHT22;11017;53.552;9.910;2023-06-14T11:57:48;29.20;84.10
21712;DHT22;11017;53.552;9.910;2023-06-14T12:00:16;30.60;84.00
21712;DHT22;11017;53.552;9.910;2023-06-14T12:02:51;30.30;80.90
21712;DHT22;11017;53.552;9.910;2023-06-14T12:05:21;30.00;80.80
21712;DHT22;11017;53.552;9.910;2023-06-14T12:07:48;29.00;81.00
21712;DHT22;11017;53.552;9.910;2023-06-14T12:10:17;28.70;82.00
21712;DHT22;11017;53.552;9.910;2023-06-14T12:12:44;27.70;83.30
21712;DHT22;11017;53.552;9.910;2023-06-14T12:15:11;27.80;84.30
21712;DHT22;11017;53.552;9.910;2023-06-14T12:17:38;28.40;83.60
21712;DHT22;11017;53.552;9.910;2023-06-14T12:20:08;28.60;82.40
21712;DHT22;11017;53.552;9.910;2023-06-14T12:22:46;29.00;82.70
21712;DHT22;11017;53.552;9.910;2023-06-14T12:25:28;29.30;82.30
21712;DHT22;11017;53.552;9.910;2023-06-14T12:27:58;30.20;82.60
21712;DHT22;11017;53.552;9.910;2023-06-14T12:30:25;30.00;82.60
21712;DHT22;11017;53.552;9.910;2023-06-14T12:32:52;29.90;81.70
21712;DHT22;11017;53.552;9.910;2023-06-14T12:35:19;28.70;82.10
21712;DHT22;11017;53.552;9.910;2023-06-14T12:37:46;28.00;83.40
21712;DHT22;11017;53.552;9.910;2023-06-14T12:40:14;27.80;83.40
21712;DHT22;11017;53.552;9.910;2023-06-14T12:42:44;27.50;83.20
21712;DHT22;11017;53.552;9.910;2023-06-14T12:45:13;28.10;84.00
21712;DHT22;11017;53.552;9.910;2023-06-14T12:47:40;29.80;82.20
21712;DHT22;11017;53.552;9.910;2023-06-14T12:50:08;29.80;81.40
21712;DHT22;11017;53.552;9.910;2023-06-14T12:52:35;30.40;82.40
21712;DHT22;11017;53.552;9.910;2023-06-14T12:55:03;31.00;81.70
21712;DHT22;11017;53.552;9.910;2023-06-14T12:57:30;31.90;79.30
21712;DHT22;11017;53.552;9.910;2023-06-14T12:59:59;31.80;78.00
21712;DHT22;11017;53.552;9.910;2023-06-14T13:02:26;32.50;78.70
21712;DHT22;11017;53.552;9.910;2023-06-14T13:04:54;31.90;78.60
21712;DHT22;11017;53.552;9.910;2023-06-14T13:07:22;31.70;77.70
21712;DHT22;11017;53.552;9.910;2023-06-14T13:09:49;30.40;77.50
21712;DHT22;11017;53.552;9.910;2023-06-14T13:12:16;29.60;78.90
21712;DHT22;11017;53.552;9.910;2023-06-14T13:14:43;29.80;78.60
21712;DHT22;11017;53.552;9.910;2023-06-14T13:17:11;30.70;78.10
21712;DHT22;11017;53.552;9.910;2023-06-14T13:19:38;32.20;75.90
21712;DHT22;11017;53.552;9.910;2023-06-14T13:22:05;32.90;73.20
21712;DHT22;11017;53.552;9.910;2023-06-14T13:24:33;32.90;75.30
21712;DHT22;11017;53.552;9.910;2023-06-14T13:27:00;34.30;75.20
21712;DHT22;11017;53.552;9.910;2023-06-14T13:29:27;34.50;72.70
21712;DHT22;11017;53.552;9.910;2023-06-14T13:31:56;32.00;73.60
21712;DHT22;11017;53.552;9.910;2023-06-14T13:34:24;30.80;74.10
21712;DHT22;11017;53.552;9.910;2023-06-14T13:36:51;30.30;75.30
21712;DHT22;11017;53.552;9.910;2023-06-14T13:39:18;29.90;75.60
21712;DHT22;11017;53.552;9.910;2023-06-14T13:41:45;31.50;74.10
21712;DHT22;11017;53.552;9.910;2023-06-14T13:44:12;30.70;73.50
21712;DHT22;11017;53.552;9.910;2023-06-14T13:46:40;30.40;74.50
21712;DHT22;11017;53.552;9.910;2023-06-14T13:49:08;31.20;73.70
21712;DHT22;11017;53.552;9.910;2023-06-14T13:51:37;31.10;73.50
21712;DHT22;11017;53.552;9.910;2023-06-14T13:54:04;29.20;76.50
21712;DHT22;11017;53.552;9.910;2023-06-14T13:56:30;28.40;77.40
21712;DHT22;11017;53.552;9.910;2023-06-14T13:58:57;29.60;79.00
21712;DHT22;11017;53.552;9.910;2023-06-14T14:01:25;30.00;76.40
21712;DHT22;11017;53.552;9.910;2023-06-14T14:03:54;30.10;75.30
21712;DHT22;11017;53.552;9.910;2023-06-14T14:06:21;29.00;75.10
21712;DHT22;11017;53.552;9.910;2023-06-14T14:08:49;28.60;75.50
21712;DHT22;11017;53.552;9.910;2023-06-14T14:11:16;28.30;75.90
21712;DHT22;11017;53.552;9.910;2023-06-14T14:13:43;27.90;77.00
21712;DHT22;11017;53.552;9.910;2023-06-14T14:16:10;29.90;75.90
21712;DHT22;11017;53.552;9.910;2023-06-14T14:18:37;30.70;73.20
21712;DHT22;11017;53.552;9.910;2023-06-14T14:21:04;31.00;74.50
21712;DHT22;11017;53.552;9.910;2023-06-14T14:23:31;31.70;75.00
21712;DHT22;11017;53.552;9.910;2023-06-14T14:25:59;31.90;73.10
21712;DHT22;11017;53.552;9.910;2023-06-14T14:28:29;31.60;71.90
21712;DHT22;11017;53.552;9.910;2023-06-14T14:30:56;31.10;71.90
21712;DHT22;11017;53.552;9.910;2023-06-14T14:33:23;29.70;72.80
21712;DHT22;11017;53.552;9.910;2023-06-14T14:35:50;28.50;73.80
21712;DHT22;11017;53.552;9.910;2023-06-14T14:38:17;28.40;74.50
21712;DHT22;11017;53.552;9.910;2023-06-14T14:40:44;28.20;74.10
21712;DHT22;11017;53.552;9.910;2023-06-14T14:43:12;28.10;74.10
21712;DHT22;11017;53.552;9.910;2023-06-14T14:45:39;29.90;73.50
21712;DHT22;11017;53.552;9.910;2023-06-14T14:48:06;30.60;72.10
21712;DHT22;11017;53.552;9.910;2023-06-14T14:50:33;31.80;72.90
21712;DHT22;11017;53.552;9.910;2023-06-14T14:53:00;33.20;72.20
21712;DHT22;11017;53.552;9.910;2023-06-14T14:55:27;32.80;70.80
21712;DHT22;11017;53.552;9.910;2023-06-14T14:57:54;32.10;70.80
21712;DHT22;11017;53.552;9.910;2023-06-14T15:00:22;32.00;70.50
21712;DHT22;11017;53.552;9.910;2023-06-14T15:02:49;31.80;70.50
21712;DHT22;11017;53.552;9.910;2023-06-14T15:05:16;30.50;70.70
21712;DHT22;11017;53.552;9.910;2023-06-14T15:07:43;29.70;71.90
21712;DHT22;11017;53.552;9.910;2023-06-14T15:10:11;28.70;73.10
21712;DHT22;11017;53.552;9.910;2023-06-14T15:12:38;29.50;73.60
21712;DHT22;11017;53.552;9.910;2023-06-14T15:15:06;31.20;71.60
21712;DHT22;11017;53.552;9.910;2023-06-14T15:17:36;32.10;71.30
21712;DHT22;11017;53.552;9.910;2023-06-14T15:20:03;32.10;70.40
21712;DHT22;11017;53.552;9.910;2023-06-14T15:22:31;32.40;70.10
21712;DHT22;11017;53.552;9.910;2023-06-14T15:24:58;32.20;69.50
21712;DHT22;11017;53.552;9.910;2023-06-14T15:27:25;31.80;68.60
21712;DHT22;11017;53.552;9.910;2023-06-14T15:29:53;32.80;68.80
21712;DHT22;11017;53.552;9.910;2023-06-14T15:32:20;32.80;68.20
21712;DHT22;11017;53.552;9.910;2023-06-14T15:34:48;32.40;67.70
21712;DHT22;11017;53.552;9.910;2023-06-14T15:37:15;33.10;67.70
21712;DHT22;11017;53.552;9.910;2023-06-14T15:39:42;32.00;67.80
21712;DHT22;11017;53.552;9.910;2023-06-14T15:42:09;31.70;67.80